sensor_id;sensor_type;location;lat;lon;timestamp;temperature;humidity
13960;DHT22;7052;51.050;3.716;2023-08-31T00:00:41;12.30;99.90
13960;DHT22;7052;51.050;3.716;2023-08-31T00:03:08;12.30;99.90
13960;DHT22;7052;51.050;3.716;2023-08-31T00:05:37;12.30;99.90
13960;DHT22;7052;51.050;3.716;2023-08-31T00:08:08;12.30;99.90
13960;DHT22;7052;51.050;3.716;2023-08-31T00:10:37;12.30;99.90
13960;DHT22;7052;51.050;3.716;2023-08-31T00:13:05;12.30;99.90
13960;DHT22;7052;51.050;3.716;2023-08-31T00:15:34;12.30;99.90
13960;DHT22;7052;51.050;3.716;2023-08-31T00:18:06;12.30;99.90
13960;DHT22;7052;51.050;3.716;2023-08-31T00:20:33;12.40;99.90
13960;DHT22;7052;51.050;3.716;2023-08-31T00:23:01;12.30;99.90
13960;DHT22;7052;51.050;3.716;2023-08-31T00:25:33;12.30;99.90
13960;DHT22;7052;51.050;3.716;2023-08-31T00:28:00;12.30;99.90
13960;DHT22;7052;51.050;3.716;2023-08-31T00:30:30;12.30;99.90
13960;DHT22;7052;51.050;3.716;2023-08-31T00:32:57;12.30;99.90
13960;DHT22;7052;51.050;3.716;2023-08-31T00:35:29;12.30;99.90
13960;DHT22;7052;51.050;3.716;2023-08-31T00:37:56;12.30;99.90
13960;DHT22;7052;51.050;3.716;2023-08-31T00:40:24;12.30;99.90
13960;DHT22;7052;51.050;3.716;2023-08-31T00:42:53;12.30;99.90
13960;DHT22;7052;51.050;3.716;2023-08-31T00:45:21;12.30;99.90
13960;DHT22;7052;51.050;3.716;2023-08-31T00:47:48;12.30;99.90
13960;DHT22;7052;51.050;3.716;2023-08-31T00:50:17;12.30;99.90
13960;DHT22;7052;51.050;3.716;2023-08-31T00:52:44;12.30;99.90
13960;DHT22;7052;51.050;3.716;2023-08-31T00:55:13;12.30;99.90
13960;DHT22;7052;51.050;3.716;2023-08-31T00:57:43;12.30;99.90
13960;DHT22;7052;51.050;3.716;2023-08-31T01:00:14;12.30;99.90
13960;DHT22;7052;51.050;3.716;2023-08-31T01:02:51;12.20;99.90
13960;DHT22;7052;51.050;3.716;2023-08-31T01:05:33;12.30;99.90
13960;DHT22;7052;51.050;3.716;2023-08-31T01:08:16;12.20;99.90
13960;DHT22;7052;51.050;3.716;2023-08-31T01:10:55;12.20;99.90
13960;DHT22;7052;51.050;3.716;2023-08-31T01:13:31;12.20;99.90
13960;DHT22;7052;51.050;3.716;2023-08-31T01:16:06;12.20;99.90
13960;DHT22;7052;51.050;3.716;2023-08-31T01:18:39;12.20;99.90
13960;DHT22;7052;51.050;3.716;2023-08-31T01:21:12;12.20;99.90
13960;DHT22;7052;51.050;3.716;2023-08-31T01:23:55;12.20;99.90
13960;DHT22;7052;51.050;3.716;2023-08-31T01:26:24;12.20;99.90
13960;DHT22;7052;51.050;3.716;2023-08-31T01:28:52;12.20;99.90
13960;DHT22;7052;51.050;3.716;2023-08-31T01:31:19;12.20;99.90
13960;DHT22;7052;51.050;3.716;2023-08-31T01:33:49;12.20;99.90
13960;DHT22;7052;51.050;3.716;2023-08-31T01:36:22;12.20;99.90
13960;DHT22;7052;51.050;3.716;2023-08-31T01:38:58;12.20;99.90
13960;DHT22;7052;51.050;3.716;2023-08-31T01:41:28;12.10;99.90
13960;DHT22;7052;51.050;3.716;2023-08-31T01:43:56;12.20;99.90
13960;DHT22;7052;51.050;3.716;2023-08-31T01:46:24;12.10;99.90
13960;DHT22;7052;51.050;3.716;2023-08-31T01:48:52;12.10;99.90
13960;DHT22;7052;51.050;3.716;2023-08-31T01:51:19;12.10;99.90
13960;DHT22;7052;51.050;3.716;2023-08-31T01:53:46;12.10;99.90
13960;DHT22;7052;51.050;3.716;2023-08-31T01:56:15;12.10;99.90
13960;DHT22;7052;51.050;3.716;2023-08-31T01:58:46;12.20;99.90
13960;DHT22;7052;51.050;3.716;2023-08-31T02:01:13;12.20;99.90
13960;DHT22;7052;51.050;3.716;2023-08-31T02:03:40;12.20;99.90
13960;DHT22;7052;51.050;3.716;2023-08-31T02:06:07;12.20;99.90
13960;DHT22;7052;51.050;3.716;2023-08-31T02:08:36;12.20;99.90
13960;DHT22;7052;51.050;3.716;2023-08-31T02:11:03;12.20;99.90
13960;DHT22;7052;51.050;3.716;2023-08-31T02:13:32;12.20;99.90
13960;DHT22;7052;51.050;3.716;2023-08-31T02:15:59;12.20;99.90
13960;DHT22;7052;51.050;3.716;2023-08-31T02:18:26;12.20;99.90
13960;DHT22;7052;51.050;3.716;2023-08-31T02:20:54;12.20;99.90
13960;DHT22;7052;51.050;3.716;2023-08-31T02:23:21;12.20;99.90
13960;DHT22;7052;51.050;3.716;2023-08-31T02:25:52;12.20;99.90
13960;DHT22;7052;51.050;3.716;2023-08-31T02:28:19;12.20;99.90
13960;DHT22;7052;51.050;3.716;2023-08-31T02:30:58;12.20;99.90
13960;DHT22;7052;51.050;3.716;2023-08-31T02:33:25;12.20;99.90
13960;DHT22;7052;51.050;3.716;2023-08-31T02:35:53;12.20;99.90
13960;DHT22;7052;51.050;3.716;2023-08-31T02:38:21;12.10;99.90
13960;DHT22;7052;51.050;3.716;2023-08-31T02:40:49;12.10;99.90
13960;DHT22;7052;51.050;3.716;2023-08-31T02:43:16;12.10;99.90
13960;DHT22;7052;51.050;3.716;2023-08-31T02:45:43;12.10;99.90
13960;DHT22;7052;51.050;3.716;2023-08-31T02:48:13;12.10;99.90
13960;DHT22;7052;51.050;3.716;2023-08-31T02:50:40;12.10;99.90
13960;DHT22;7052;51.050;3.716;2023-08-31T02:53:07;12.10;99.90
13960;DHT22;7052;51.050;3.716;2023-08-31T02:55:34;12.10;99.90
13960;DHT22;7052;51.050;3.716;2023-08-31T02:58:02;12.10;99.90
13960;DHT22;7052;51.050;3.716;2023-08-31T03:00:30;12.10;99.90
13960;DHT22;7052;51.050;3.716;2023-08-31T03:02:56;12.10;99.90
13960;DHT22;7052;51.050;3.716;2023-08-31T03:05:25;12.10;99.90
13960;DHT22;7052;51.050;3.716;2023-08-31T03:07:52;12.10;99.90
13960;DHT22;7052;51.050;3.716;2023-08-31T03:10:23;12.10;99.90
13960;DHT22;7052;51.050;3.716;2023-08-31T03:12:51;12.20;99.90
13960;DHT22;7052;51.050;3.716;2023-08-31T03:15:18;12.10;99.90
13960;DHT22;7052;51.050;3.716;2023-08-31T03:17:46;12.20;99.90
13960;DHT22;7052;51.050;3.716;2023-08-31T03:20:15;12.20;99.90
13960;DHT22;7052;51.050;3.716;2023-08-31T03:22:44;12.20;99.90
13960;DHT22;7052;51.050;3.716;2023-08-31T03:25:11;12.20;99.90
13960;DHT22;7052;51.050;3.716;2023-08-31T03:27:38;12.20;99.90
13960;DHT22;7052;51.050;3.716;2023-08-31T03:30:06;12.20;99.90
13960;DHT22;7052;51.050;3.716;2023-08-31T03:32:35;12.20;99.90
13960;DHT22;7052;51.050;3.716;2023-08-31T03:35:02;12.20;99.90
13960;DHT22;7052;51.050;3.716;2023-08-31T03:37:33;12.20;99.90
13960;DHT22;7052;51.050;3.716;2023-08-31T03:40:01;12.20;99.90
13960;DHT22;7052;51.050;3.716;2023-08-31T03:42:29;12.20;99.90
13960;DHT22;7052;51.050;3.716;2023-08-31T03:44:58;12.20;99.90
13960;DHT22;7052;51.050;3.716;2023-08-31T03:47:25;12.20;99.90
13960;DHT22;7052;51.050;3.716;2023-08-31T03:49:54;12.20;99.90
13960;DHT22;7052;51.050;3.716;2023-08-31T03:52:22;12.20;99.90
13960;DHT22;7052;51.050;3.716;2023-08-31T03:54:50;12.20;99.90
13960;DHT22;7052;51.050;3.716;2023-08-31T03:57:22;12.20;99.90
13960;DHT22;7052;51.050;3.716;2023-08-31T03:59:51;12.20;99.90
13960;DHT22;7052;51.050;3.716;2023-08-31T04:02:19;12.20;99.90
13960;DHT22;7052;51.050;3.716;2023-08-31T04:04:46;12.20;99.90
13960;DHT22;7052;51.050;3.716;2023-08-31T04:07:13;12.20;99.90
13960;DHT22;7052;51.050;3.716;2023-08-31T04:09:41;12.10;99.90
13960;DHT22;7052;51.050;3.716;2023-08-31T04:12:09;12.20;99.90
13960;DHT22;7052;51.050;3.716;2023-08-31T04:14:37;12.10;99.90
13960;DHT22;7052;51.050;3.716;2023-08-31T04:17:05;12.20;99.90
13960;DHT22;7052;51.050;3.716;2023-08-31T04:19:31;12.20;99.90
13960;DHT22;7052;51.050;3.716;2023-08-31T04:21:59;12.10;99.90
13960;DHT22;7052;51.050;3.716;2023-08-31T04:24:27;12.20;99.90
13960;DHT22;7052;51.050;3.716;2023-08-31T04:26:55;12.10;99.90
13960;DHT22;7052;51.050;3.716;2023-08-31T04:29:23;12.10;99.90
13960;DHT22;7052;51.050;3.716;2023-08-31T04:31:52;12.10;99.90
13960;DHT22;7052;51.050;3.716;2023-08-31T04:34:19;12.10;99.90
13960;DHT22;7052;51.050;3.716;2023-08-31T04:36:46;12.10;99.90
13960;DHT22;7052;51.050;3.716;2023-08-31T04:39:14;12.10;99.90
13960;DHT22;7052;51.050;3.716;2023-08-31T04:41:42;12.10;99.90
13960;DHT22;7052;51.050;3.716;2023-08-31T04:44:10;12.10;99.90
13960;DHT22;7052;51.050;3.716;2023-08-31T04:46:38;12.10;99.90
13960;DHT22;7052;51.050;3.716;2023-08-31T04:49:11;12.10;99.90
13960;DHT22;7052;51.050;3.716;2023-08-31T04:51:38;12.10;99.90
13960;DHT22;7052;51.050;3.716;2023-08-31T04:54:08;12.10;99.90
13960;DHT22;7052;51.050;3.716;2023-08-31T04:56:36;12.10;99.90
13960;DHT22;7052;51.050;3.716;2023-08-31T04:59:04;12.10;99.90
13960;DHT22;7052;51.050;3.716;2023-08-31T05:01:32;12.10;99.90
13960;DHT22;7052;51.050;3.716;2023-08-31T05:03:59;12.10;99.90
13960;DHT22;7052;51.050;3.716;2023-08-31T05:06:28;12.10;99.90
13960;DHT22;7052;51.050;3.716;2023-08-31T05:08:55;12.10;99.90
13960;DHT22;7052;51.050;3.716;2023-08-31T05:11:23;12.00;99.90
13960;DHT22;7052;51.050;3.716;2023-08-31T05:13:50;12.10;99.90
13960;DHT22;7052;51.050;3.716;2023-08-31T05:16:17;12.10;99.90
13960;DHT22;7052;51.050;3.716;2023-08-31T05:18:44;12.10;99.90
13960;DHT22;7052;51.050;3.716;2023-08-31T05:21:11;12.10;99.90
13960;DHT22;7052;51.050;3.716;2023-08-31T05:23:40;12.10;99.90
13960;DHT22;7052;51.050;3.716;2023-08-31T05:26:08;12.10;99.90
13960;DHT22;7052;51.050;3.716;2023-08-31T05:28:36;12.10;99.90
13960;DHT22;7052;51.050;3.716;2023-08-31T05:31:04;12.10;99.90
13960;DHT22;7052;51.050;3.716;2023-08-31T05:33:31;12.10;99.90
13960;DHT22;7052;51.050;3.716;2023-08-31T05:36:01;12.10;99.90
13960;DHT22;7052;51.050;3.716;2023-08-31T05:38:29;12.10;99.90
13960;DHT22;7052;51.050;3.716;2023-08-31T05:41:06;12.10;99.90
13960;DHT22;7052;51.050;3.716;2023-08-31T05:43:33;12.10;99.90
13960;DHT22;7052;51.050;3.716;2023-08-31T05:46:01;12.10;99.90
13960;DHT22;7052;51.050;3.716;2023-08-31T05:48:29;12.10;99.90
13960;DHT22;7052;51.050;3.716;2023-08-31T05:50:58;12.20;99.90
13960;DHT22;7052;51.050;3.716;2023-08-31T05:53:25;12.20;99.90
13960;DHT22;7052;51.050;3.716;2023-08-31T05:55:54;12.20;99.90
13960;DHT22;7052;51.050;3.716;2023-08-31T05:58:30;12.20;99.90
13960;DHT22;7052;51.050;3.716;2023-08-31T06:00:59;12.20;99.90
13960;DHT22;7052;51.050;3.716;2023-08-31T06:03:26;12.30;99.90
13960;DHT22;7052;51.050;3.716;2023-08-31T06:05:54;12.30;99.90
13960;DHT22;7052;51.050;3.716;2023-08-31T06:08:22;12.30;99.90
13960;DHT22;7052;51.050;3.716;2023-08-31T06:10:50;12.30;99.90
13960;DHT22;7052;51.050;3.716;2023-08-31T06:13:19;12.40;99.90
13960;DHT22;7052;51.050;3.716;2023-08-31T06:15:47;12.40;99.90
13960;DHT22;7052;51.050;3.716;2023-08-31T06:18:15;12.40;99.90
13960;DHT22;7052;51.050;3.716;2023-08-31T06:20:42;12.50;99.90
13960;DHT22;7052;51.050;3.716;2023-08-31T06:23:11;12.80;99.90
13960;DHT22;7052;51.050;3.716;2023-08-31T06:25:38;13.20;99.90
13960;DHT22;7052;51.050;3.716;2023-08-31T06:28:06;13.60;99.90
13960;DHT22;7052;51.050;3.716;2023-08-31T06:30:37;13.80;99.90
13960;DHT22;7052;51.050;3.716;2023-08-31T06:33:06;14.00;99.90
13960;DHT22;7052;51.050;3.716;2023-08-31T06:35:33;14.10;99.90
13960;DHT22;7052;51.050;3.716;2023-08-31T06:38:03;14.40;99.90
13960;DHT22;7052;51.050;3.716;2023-08-31T06:40:30;14.60;99.90
13960;DHT22;7052;51.050;3.716;2023-08-31T06:43:04;14.70;99.90
13960;DHT22;7052;51.050;3.716;2023-08-31T06:45:30;14.80;99.90
13960;DHT22;7052;51.050;3.716;2023-08-31T06:47:57;15.00;99.90
13960;DHT22;7052;51.050;3.716;2023-08-31T06:50:27;15.20;99.90
13960;DHT22;7052;51.050;3.716;2023-08-31T06:52:54;15.30;99.90
13960;DHT22;7052;51.050;3.716;2023-08-31T06:55:21;15.50;99.90
13960;DHT22;7052;51.050;3.716;2023-08-31T06:57:48;15.70;99.90
13960;DHT22;7052;51.050;3.716;2023-08-31T07:00:16;15.80;99.90
13960;DHT22;7052;51.050;3.716;2023-08-31T07:02:44;15.90;99.90
13960;DHT22;7052;51.050;3.716;2023-08-31T07:05:11;16.10;99.90
13960;DHT22;7052;51.050;3.716;2023-08-31T07:07:40;16.30;99.90
13960;DHT22;7052;51.050;3.716;2023-08-31T07:10:08;16.40;99.90
13960;DHT22;7052;51.050;3.716;2023-08-31T07:12:36;16.50;99.90
13960;DHT22;7052;51.050;3.716;2023-08-31T07:15:04;16.60;99.90
13960;DHT22;7052;51.050;3.716;2023-08-31T07:17:31;16.70;99.90
13960;DHT22;7052;51.050;3.716;2023-08-31T07:19:59;16.80;99.90
13960;DHT22;7052;51.050;3.716;2023-08-31T07:22:26;17.00;99.90
13960;DHT22;7052;51.050;3.716;2023-08-31T07:24:57;17.10;99.90
13960;DHT22;7052;51.050;3.716;2023-08-31T07:27:27;17.00;99.90
13960;DHT22;7052;51.050;3.716;2023-08-31T07:29:54;16.90;99.90
13960;DHT22;7052;51.050;3.716;2023-08-31T07:32:21;16.70;99.90
13960;DHT22;7052;51.050;3.716;2023-08-31T07:34:49;16.50;99.90
13960;DHT22;7052;51.050;3.716;2023-08-31T07:37:16;16.40;99.90
13960;DHT22;7052;51.050;3.716;2023-08-31T07:39:43;16.30;99.90
13960;DHT22;7052;51.050;3.716;2023-08-31T07:42:17;16.30;99.90
13960;DHT22;7052;51.050;3.716;2023-08-31T07:44:44;16.30;99.90
13960;DHT22;7052;51.050;3.716;2023-08-31T07:47:12;16.30;99.90
13960;DHT22;7052;51.050;3.716;2023-08-31T07:49:41;16.30;99.90
13960;DHT22;7052;51.050;3.716;2023-08-31T07:52:09;16.40;99.90
13960;DHT22;7052;51.050;3.716;2023-08-31T07:54:36;16.50;99.90
13960;DHT22;7052;51.050;3.716;2023-08-31T07:57:04;16.50;99.90
13960;DHT22;7052;51.050;3.716;2023-08-31T07:59:38;16.50;99.90
13960;DHT22;7052;51.050;3.716;2023-08-31T08:02:08;16.60;99.90
13960;DHT22;7052;51.050;3.716;2023-08-31T08:04:35;16.60;99.90
13960;DHT22;7052;51.050;3.716;2023-08-31T08:07:03;16.70;99.90
13960;DHT22;7052;51.050;3.716;2023-08-31T08:09:30;16.70;99.90
13960;DHT22;7052;51.050;3.716;2023-08-31T08:11:57;16.80;99.90
13960;DHT22;7052;51.050;3.716;2023-08-31T08:14:24;16.80;99.90
13960;DHT22;7052;51.050;3.716;2023-08-31T08:16:55;16.90;99.90
13960;DHT22;7052;51.050;3.716;2023-08-31T08:19:23;16.90;99.90
13960;DHT22;7052;51.050;3.716;2023-08-31T08:21:50;17.00;99.90
13960;DHT22;7052;51.050;3.716;2023-08-31T08:24:18;17.10;99.90
13960;DHT22;7052;51.050;3.716;2023-08-31T08:26:45;17.20;99.90
13960;DHT22;7052;51.050;3.716;2023-08-31T08:29:13;17.20;99.90
13960;DHT22;7052;51.050;3.716;2023-08-31T08:31:42;17.30;99.90
13960;DHT22;7052;51.050;3.716;2023-08-31T08:34:10;17.40;99.90
13960;DHT22;7052;51.050;3.716;2023-08-31T08:36:38;17.40;99.90
13960;DHT22;7052;51.050;3.716;2023-08-31T08:39:08;17.50;99.90
13960;DHT22;7052;51.050;3.716;2023-08-31T08:41:35;17.60;99.90
13960;DHT22;7052;51.050;3.716;2023-08-31T08:44:07;17.60;99.90
13960;DHT22;7052;51.050;3.716;2023-08-31T08:46:36;17.70;99.90
13960;DHT22;7052;51.050;3.716;2023-08-31T08:49:15;17.80;99.90
13960;DHT22;7052;51.050;3.716;2023-08-31T08:51:45;17.80;99.90
13960;DHT22;7052;51.050;3.716;2023-08-31T08:54:13;17.90;99.90
13960;DHT22;7052;51.050;3.716;2023-08-31T08:56:41;18.00;99.90
13960;DHT22;7052;51.050;3.716;2023-08-31T08:59:09;18.00;99.90
13960;DHT22;7052;51.050;3.716;2023-08-31T09:01:39;18.10;99.90
13960;DHT22;7052;51.050;3.716;2023-08-31T09:04:06;18.30;99.90
13960;DHT22;7052;51.050;3.716;2023-08-31T09:06:38;18.30;99.90
13960;DHT22;7052;51.050;3.716;2023-08-31T09:09:08;18.40;99.90
13960;DHT22;7052;51.050;3.716;2023-08-31T09:11:37;18.40;99.90
13960;DHT22;7052;51.050;3.716;2023-08-31T09:14:13;18.50;99.90
13960;DHT22;7052;51.050;3.716;2023-08-31T09:16:44;18.70;99.90
13960;DHT22;7052;51.050;3.716;2023-08-31T09:19:18;18.70;99.90
13960;DHT22;7052;51.050;3.716;2023-08-31T09:21:49;18.60;99.90
13960;DHT22;7052;51.050;3.716;2023-08-31T09:24:16;18.70;99.90
13960;DHT22;7052;51.050;3.716;2023-08-31T09:26:52;18.70;99.90
13960;DHT22;7052;51.050;3.716;2023-08-31T09:29:20;18.90;99.90
13960;DHT22;7052;51.050;3.716;2023-08-31T09:31:47;18.90;99.90
13960;DHT22;7052;51.050;3.716;2023-08-31T09:34:14;19.00;99.90
13960;DHT22;7052;51.050;3.716;2023-08-31T09:36:43;19.10;99.90
13960;DHT22;7052;51.050;3.716;2023-08-31T09:39:13;19.20;99.90
13960;DHT22;7052;51.050;3.716;2023-08-31T09:41:52;19.40;99.90
13960;DHT22;7052;51.050;3.716;2023-08-31T09:44:20;19.40;99.90
13960;DHT22;7052;51.050;3.716;2023-08-31T09:46:48;19.50;99.90
13960;DHT22;7052;51.050;3.716;2023-08-31T09:49:16;19.50;99.90
13960;DHT22;7052;51.050;3.716;2023-08-31T09:51:48;19.60;99.90
13960;DHT22;7052;51.050;3.716;2023-08-31T09:54:21;19.60;99.90
13960;DHT22;7052;51.050;3.716;2023-08-31T09:56:49;19.70;99.90
13960;DHT22;7052;51.050;3.716;2023-08-31T09:59:19;19.80;99.90
13960;DHT22;7052;51.050;3.716;2023-08-31T10:01:47;19.80;99.90
13960;DHT22;7052;51.050;3.716;2023-08-31T10:04:15;19.80;99.90
13960;DHT22;7052;51.050;3.716;2023-08-31T10:06:45;19.90;99.90
13960;DHT22;7052;51.050;3.716;2023-08-31T10:09:13;19.90;99.90
13960;DHT22;7052;51.050;3.716;2023-08-31T10:11:42;20.00;99.90
13960;DHT22;7052;51.050;3.716;2023-08-31T10:14:10;20.00;99.90
13960;DHT22;7052;51.050;3.716;2023-08-31T10:16:39;19.80;99.90
13960;DHT22;7052;51.050;3.716;2023-08-31T10:19:07;19.70;99.90
13960;DHT22;7052;51.050;3.716;2023-08-31T10:21:34;19.60;99.90
13960;DHT22;7052;51.050;3.716;2023-08-31T10:24:03;19.60;99.90
13960;DHT22;7052;51.050;3.716;2023-08-31T10:26:33;19.60;99.90
13960;DHT22;7052;51.050;3.716;2023-08-31T10:29:02;19.60;99.90
13960;DHT22;7052;51.050;3.716;2023-08-31T10:31:31;19.70;99.90
13960;DHT22;7052;51.050;3.716;2023-08-31T10:33:59;19.90;99.90
13960;DHT22;7052;51.050;3.716;2023-08-31T10:36:38;20.10;99.90
13960;DHT22;7052;51.050;3.716;2023-08-31T10:39:10;20.10;99.90
13960;DHT22;7052;51.050;3.716;2023-08-31T10:41:38;20.10;99.90
13960;DHT22;7052;51.050;3.716;2023-08-31T10:44:19;20.20;99.90
13960;DHT22;7052;51.050;3.716;2023-08-31T10:46:46;20.20;99.90
13960;DHT22;7052;51.050;3.716;2023-08-31T10:49:16;20.10;99.90
13960;DHT22;7052;51.050;3.716;2023-08-31T10:51:44;20.10;99.90
13960;DHT22;7052;51.050;3.716;2023-08-31T10:54:19;20.20;99.90
13960;DHT22;7052;51.050;3.716;2023-08-31T10:57:02;20.40;99.90
13960;DHT22;7052;51.050;3.716;2023-08-31T10:59:47;20.40;99.90
13960;DHT22;7052;51.050;3.716;2023-08-31T11:02:35;20.60;99.90
13960;DHT22;7052;51.050;3.716;2023-08-31T11:05:08;20.60;99.90
13960;DHT22;7052;51.050;3.716;2023-08-31T11:07:37;20.60;99.90
13960;DHT22;7052;51.050;3.716;2023-08-31T11:10:09;20.60;99.90
13960;DHT22;7052;51.050;3.716;2023-08-31T11:12:37;20.50;99.90
13960;DHT22;7052;51.050;3.716;2023-08-31T11:15:07;20.40;99.90
13960;DHT22;7052;51.050;3.716;2023-08-31T11:17:37;20.50;99.90
13960;DHT22;7052;51.050;3.716;2023-08-31T11:20:07;20.50;99.90
13960;DHT22;7052;51.050;3.716;2023-08-31T11:22:38;20.60;99.90
13960;DHT22;7052;51.050;3.716;2023-08-31T11:25:06;20.90;99.90
13960;DHT22;7052;51.050;3.716;2023-08-31T11:27:34;21.00;99.90
13960;DHT22;7052;51.050;3.716;2023-08-31T11:30:06;21.20;99.90
13960;DHT22;7052;51.050;3.716;2023-08-31T11:32:44;21.30;99.90
13960;DHT22;7052;51.050;3.716;2023-08-31T11:35:13;21.60;97.40
13960;DHT22;7052;51.050;3.716;2023-08-31T11:37:43;21.70;97.50
13960;DHT22;7052;51.050;3.716;2023-08-31T11:40:10;21.70;94.20
13960;DHT22;7052;51.050;3.716;2023-08-31T11:42:40;21.80;96.00
13960;DHT22;7052;51.050;3.716;2023-08-31T11:45:10;21.80;96.40
13960;DHT22;7052;51.050;3.716;2023-08-31T11:47:38;21.70;96.80
13960;DHT22;7052;51.050;3.716;2023-08-31T11:50:08;21.60;95.40
13960;DHT22;7052;51.050;3.716;2023-08-31T11:52:36;21.60;96.30
13960;DHT22;7052;51.050;3.716;2023-08-31T11:55:10;21.50;96.60
13960;DHT22;7052;51.050;3.716;2023-08-31T11:57:37;21.40;99.50
13960;DHT22;7052;51.050;3.716;2023-08-31T12:00:05;21.40;99.90
13960;DHT22;7052;51.050;3.716;2023-08-31T12:02:38;21.30;99.90
13960;DHT22;7052;51.050;3.716;2023-08-31T12:05:05;21.20;99.90
13960;DHT22;7052;51.050;3.716;2023-08-31T12:07:39;21.00;99.90
13960;DHT22;7052;51.050;3.716;2023-08-31T12:10:08;20.80;99.90
13960;DHT22;7052;51.050;3.716;2023-08-31T12:12:36;20.80;99.90
13960;DHT22;7052;51.050;3.716;2023-08-31T12:15:05;20.80;99.90
13960;DHT22;7052;51.050;3.716;2023-08-31T12:17:38;20.80;99.90
13960;DHT22;7052;51.050;3.716;2023-08-31T12:20:09;20.90;99.90
13960;DHT22;7052;51.050;3.716;2023-08-31T12:22:38;21.00;99.90
13960;DHT22;7052;51.050;3.716;2023-08-31T12:25:06;21.00;99.90
13960;DHT22;7052;51.050;3.716;2023-08-31T12:27:33;21.00;99.90
13960;DHT22;7052;51.050;3.716;2023-08-31T12:30:00;21.00;99.90
13960;DHT22;7052;51.050;3.716;2023-08-31T12:32:31;21.10;99.90
13960;DHT22;7052;51.050;3.716;2023-08-31T12:35:06;21.10;99.90
13960;DHT22;7052;51.050;3.716;2023-08-31T12:37:35;21.10;99.90
13960;DHT22;7052;51.050;3.716;2023-08-31T12:40:05;21.00;99.90
13960;DHT22;7052;51.050;3.716;2023-08-31T12:42:35;21.10;99.90
13960;DHT22;7052;51.050;3.716;2023-08-31T12:45:05;21.10;99.90
13960;DHT22;7052;51.050;3.716;2023-08-31T12:47:34;21.20;99.90
13960;DHT22;7052;51.050;3.716;2023-08-31T12:50:03;21.20;99.90
13960;DHT22;7052;51.050;3.716;2023-08-31T12:52:31;21.30;99.90
13960;DHT22;7052;51.050;3.716;2023-08-31T12:54:58;21.40;99.90
13960;DHT22;7052;51.050;3.716;2023-08-31T12:57:25;21.50;99.90
13960;DHT22;7052;51.050;3.716;2023-08-31T12:59:54;21.60;99.90
13960;DHT22;7052;51.050;3.716;2023-08-31T13:02:21;21.80;99.90
13960;DHT22;7052;51.050;3.716;2023-08-31T13:04:49;22.20;97.90
13960;DHT22;7052;51.050;3.716;2023-08-31T13:07:17;22.40;97.70
13960;DHT22;7052;51.050;3.716;2023-08-31T13:09:46;22.60;94.10
13960;DHT22;7052;51.050;3.716;2023-08-31T13:12:13;22.70;92.00
13960;DHT22;7052;51.050;3.716;2023-08-31T13:14:43;22.70;91.70
13960;DHT22;7052;51.050;3.716;2023-08-31T13:17:10;22.70;81.80
13960;DHT22;7052;51.050;3.716;2023-08-31T13:19:38;22.60;79.90
13960;DHT22;7052;51.050;3.716;2023-08-31T13:22:06;22.50;76.00
13960;DHT22;7052;51.050;3.716;2023-08-31T13:24:34;22.50;77.90
13960;DHT22;7052;51.050;3.716;2023-08-31T13:27:04;22.50;79.60
13960;DHT22;7052;51.050;3.716;2023-08-31T13:29:31;22.50;74.20
13960;DHT22;7052;51.050;3.716;2023-08-31T13:31:58;22.50;78.40
13960;DHT22;7052;51.050;3.716;2023-08-31T13:34:25;22.30;81.20
13960;DHT22;7052;51.050;3.716;2023-08-31T13:36:53;22.30;84.60
13960;DHT22;7052;51.050;3.716;2023-08-31T13:39:20;22.30;86.90
13960;DHT22;7052;51.050;3.716;2023-08-31T13:41:50;22.30;88.80
13960;DHT22;7052;51.050;3.716;2023-08-31T13:44:17;22.30;90.90
13960;DHT22;7052;51.050;3.716;2023-08-31T13:46:44;22.30;89.70
13960;DHT22;7052;51.050;3.716;2023-08-31T13:49:12;22.20;91.70
13960;DHT22;7052;51.050;3.716;2023-08-31T13:51:40;22.20;93.00
13960;DHT22;7052;51.050;3.716;2023-08-31T13:54:07;22.20;94.20
13960;DHT22;7052;51.050;3.716;2023-08-31T13:56:35;22.10;92.90
13960;DHT22;7052;51.050;3.716;2023-08-31T13:59:03;21.90;93.50
13960;DHT22;7052;51.050;3.716;2023-08-31T14:01:30;21.60;95.40
13960;DHT22;7052;51.050;3.716;2023-08-31T14:03:58;21.50;96.40
13960;DHT22;7052;51.050;3.716;2023-08-31T14:06:25;21.30;98.00
13960;DHT22;7052;51.050;3.716;2023-08-31T14:08:52;21.30;98.00
13960;DHT22;7052;51.050;3.716;2023-08-31T14:11:20;21.20;98.40
13960;DHT22;7052;51.050;3.716;2023-08-31T14:13:47;21.20;98.60
13960;DHT22;7052;51.050;3.716;2023-08-31T14:16:17;21.20;99.10
13960;DHT22;7052;51.050;3.716;2023-08-31T14:18:45;21.30;99.40
13960;DHT22;7052;51.050;3.716;2023-08-31T14:21:15;21.40;99.70
13960;DHT22;7052;51.050;3.716;2023-08-31T14:23:42;21.30;99.90
13960;DHT22;7052;51.050;3.716;2023-08-31T14:26:11;21.30;99.90
13960;DHT22;7052;51.050;3.716;2023-08-31T14:28:39;21.30;99.90
13960;DHT22;7052;51.050;3.716;2023-08-31T14:31:06;21.20;99.90
13960;DHT22;7052;51.050;3.716;2023-08-31T14:33:35;21.10;99.90
13960;DHT22;7052;51.050;3.716;2023-08-31T14:36:03;21.10;99.90
13960;DHT22;7052;51.050;3.716;2023-08-31T14:38:30;21.10;99.90
13960;DHT22;7052;51.050;3.716;2023-08-31T14:40:57;21.10;99.90
13960;DHT22;7052;51.050;3.716;2023-08-31T14:43:24;21.00;99.90
13960;DHT22;7052;51.050;3.716;2023-08-31T14:45:51;20.90;99.90
13960;DHT22;7052;51.050;3.716;2023-08-31T14:48:18;20.90;99.90
13960;DHT22;7052;51.050;3.716;2023-08-31T14:50:47;20.90;99.90
13960;DHT22;7052;51.050;3.716;2023-08-31T14:53:19;20.80;99.90
13960;DHT22;7052;51.050;3.716;2023-08-31T14:55:48;20.80;99.90
13960;DHT22;7052;51.050;3.716;2023-08-31T14:58:17;20.70;99.90
13960;DHT22;7052;51.050;3.716;2023-08-31T15:00:46;20.80;99.90
13960;DHT22;7052;51.050;3.716;2023-08-31T15:03:13;20.70;99.90
13960;DHT22;7052;51.050;3.716;2023-08-31T15:05:40;20.70;99.90
13960;DHT22;7052;51.050;3.716;2023-08-31T15:08:10;20.70;99.90
13960;DHT22;7052;51.050;3.716;2023-08-31T15:10:38;20.60;99.90
13960;DHT22;7052;51.050;3.716;2023-08-31T15:13:07;20.60;99.90
13960;DHT22;7052;51.050;3.716;2023-08-31T15:15:36;20.50;99.90
13960;DHT22;7052;51.050;3.716;2023-08-31T15:18:05;20.40;99.90
13960;DHT22;7052;51.050;3.716;2023-08-31T15:20:35;20.40;99.90
13960;DHT22;7052;51.050;3.716;2023-08-31T15:23:03;20.40;99.90
13960;DHT22;7052;51.050;3.716;2023-08-31T15:25:35;20.30;99.90
13960;DHT22;7052;51.050;3.716;2023-08-31T15:28:01;20.30;99.90
13960;DHT22;7052;51.050;3.716;2023-08-31T15:30:30;20.30;99.90
13960;DHT22;7052;51.050;3.716;2023-08-31T15:33:02;20.30;99.90
13960;DHT22;7052;51.050;3.716;2023-08-31T15:35:31;20.20;99.90
13960;DHT22;7052;51.050;3.716;2023-08-31T15:37:59;20.20;99.90
13960;DHT22;7052;51.050;3.716;2023-08-31T15:40:29;20.20;99.90
13960;DHT22;7052;51.050;3.716;2023-08-31T15:42:58;20.10;99.90
13960;DHT22;7052;51.050;3.716;2023-08-31T15:45:26;20.10;99.90
13960;DHT22;7052;51.050;3.716;2023-08-31T15:47:53;20.10;99.90
13960;DHT22;7052;51.050;3.716;2023-08-31T15:50:21;20.00;99.90
13960;DHT22;7052;51.050;3.716;2023-08-31T15:52:50;20.00;99.90
13960;DHT22;7052;51.050;3.716;2023-08-31T15:55:17;20.00;99.90